Time;durP1;ratioP1;P1;durP2;ratioP2;P2;SDS_P1;SDS_P2;PMS_P1;PMS_P2;Temp;Humidity;BMP_temperature;BMP_pressure;BME280_temperature;BME280_humidity;BME280_pressure;Samples;Min_cycle;Max_cycle;Signal;HPM_P1;HPM_P2
2022/04/01 00:00:41;;;;;;;13.80;6.53;;;;;;;14.08;60.02;100215.38;5064982;28;20113;-77
2022/04/01 00:03:09;;;;;;;18.50;6.73;;;;;;;14.08;59.73;100206.94;5077403;28;20056;-76
2022/04/01 00:05:40;;;;;;;11.47;5.17;;;;;;;14.07;59.62;100208.09;5069830;28;20048;-77
2022/04/01 00:08:08;;;;;;;14.63;4.63;;;;;;;14.05;59.71;100202.00;5066554;28;20084;-77
2022/04/01 00:10:36;;;;;;;12.90;5.30;;;;;;;14.03;59.63;100209.88;5065707;28;20098;-78
2022/04/01 00:13:03;;;;;;;17.20;4.00;;;;;;;13.86;59.67;100188.03;5067556;28;20076;-77
2022/04/01 00:15:31;;;;;;;10.83;4.97;;;;;;;13.58;59.62;100141.47;5062563;28;20512;-77
2022/04/01 00:18:00;;;;;;;11.27;4.53;;;;;;;13.92;59.45;100216.84;5068613;28;20088;-77
2022/04/01 00:20:27;;;;;;;12.50;5.57;;;;;;;13.61;59.38;100168.91;5066619;28;20053;-76
2022/04/01 00:22:55;;;;;;;15.20;6.00;;;;;;;13.88;59.33;100213.84;5063853;28;20044;-77
2022/04/01 00:25:23;;;;;;;11.53;4.63;;;;;;;13.69;58.93;100190.63;5064016;28;20095;-77
2022/04/01 00:27:53;;;;;;;11.67;5.17;;;;;;;13.70;59.01;100195.09;5065688;28;20500;-77
2022/04/01 00:30:21;;;;;;;10.07;5.40;;;;;;;13.84;59.20;100224.00;5064492;28;21313;-77
2022/04/01 00:32:48;;;;;;;13.83;4.33;;;;;;;13.72;59.10;100192.81;5066414;28;20079;-78
2022/04/01 00:35:15;;;;;;;17.03;8.73;;;;;;;13.51;59.15;100175.56;5068295;28;20127;-79
2022/04/01 00:37:42;;;;;;;16.63;6.80;;;;;;;13.78;59.06;100228.06;5070329;28;20072;-77
2022/04/01 00:40:11;;;;;;;14.23;7.13;;;;;;;13.77;59.03;100217.97;5070220;28;20079;-76
2022/04/01 00:42:42;;;;;;;14.93;7.05;;;;;;;13.73;58.87;100230.97;5067808;28;20135;-76
2022/04/01 00:45:10;;;;;;;13.03;5.43;;;;;;;13.38;59.01;100182.78;5061681;28;20131;-76
2022/04/01 00:47:40;;;;;;;9.30;5.50;;;;;;;13.55;58.92;100218.69;5064269;28;20102;-77
2022/04/01 00:50:08;;;;;;;9.33;6.97;;;;;;;13.50;58.92;100219.59;5056893;28;20131;-77
2022/04/01 00:52:36;;;;;;;13.47;7.50;;;;;;;13.42;58.96;100205.44;5081020;28;20136;-77
2022/04/01 00:55:08;;;;;;;12.87;5.53;;;;;;;13.38;58.75;100199.63;5065188;28;20052;-78
2022/04/01 00:57:37;;;;;;;9.57;4.90;;;;;;;13.53;58.79;100223.75;5060665;28;20469;-78
2022/04/01 01:00:07;;;;;;;6.27;4.23;;;;;;;13.33;58.71;100208.13;5067128;28;20079;-78
2022/04/01 01:02:39;;;;;;;9.40;5.23;;;;;;;13.29;58.63;100209.88;5064836;28;20049;-78
2022/04/01 01:05:06;;;;;;;9.50;7.33;;;;;;;13.25;58.57;100201.25;5063437;28;20087;-78
2022/04/01 01:07:36;;;;;;;9.80;4.97;;;;;;;13.19;58.73;100184.78;5068804;28;20076;-77
2022/04/01 01:10:04;;;;;;;8.38;4.40;;;;;;;13.36;58.73;100224.31;5067005;28;20122;-77
2022/04/01 01:12:31;;;;;;;11.20;4.50;;;;;;;13.12;59.04;100224.41;5063987;28;20493;-78
2022/04/01 01:15:07;;;;;;;8.13;4.67;;;;;;;12.88;59.23;100199.31;5065722;28;20048;-78
2022/04/01 01:17:34;;;;;;;9.63;5.30;;;;;;;12.85;59.56;100207.50;5050025;28;20130;-78
2022/04/01 01:20:02;;;;;;;8.43;3.77;;;;;;;12.80;59.54;100211.22;5069676;28;20056;-77
2022/04/01 01:22:28;;;;;;;9.03;4.33;;;;;;;12.86;59.96;100235.22;5069664;28;20048;-77
2022/04/01 01:24:56;;;;;;;7.93;3.60;;;;;;;12.46;59.87;100172.22;5056863;28;20106;-77
2022/04/01 01:27:22;;;;;;;8.73;3.50;;;;;;;12.45;60.03;100178.97;5053721;28;20072;-76
2022/04/01 01:29:52;;;;;;;12.40;3.40;;;;;;;12.67;59.78;100217.56;5066840;28;20123;-78
2022/04/01 01:32:23;;;;;;;8.53;3.70;;;;;;;12.90;59.60;100255.91;5060915;28;20044;-77
2022/04/01 01:34:50;;;;;;;11.20;3.67;;;;;;;12.03;59.46;100088.28;5071742;28;20091;-77
2022/04/01 01:37:32;;;;;;;;;;;;;;;;;;;;;
2022/04/01 01:40:11;;;;;;;7.23;2.77;;;;;;;12.09;59.02;100113.09;5054058;28;20119;-77
2022/04/01 01:42:38;;;;;;;10.70;3.30;;;;;;;12.95;59.16;100243.75;5085991;28;20088;-76
2022/04/01 01:45:06;;;;;;;8.33;3.47;;;;;;;12.85;58.59;100211.13;5067179;28;20123;-78
2022/04/01 01:47:34;;;;;;;6.33;3.30;;;;;;;12.83;58.42;100204.19;5082816;28;20143;-77
2022/04/01 01:55:31;;;;;;;5.17;3.40;;;;;;;12.68;58.96;100208.84;5069850;28;20045;-77
2022/04/01 01:57:59;;;;;;;5.80;3.53;;;;;;;12.84;58.85;100247.88;5069162;28;20124;-77
2022/04/01 02:00:27;;;;;;;11.83;3.90;;;;;;;12.52;59.16;100188.66;5066319;28;20131;-77
2022/04/01 02:02:54;;;;;;;4.83;3.20;;;;;;;12.73;59.10;100225.59;5068957;28;20083;-77
2022/04/01 02:05:21;;;;;;;10.27;3.20;;;;;;;12.63;59.13;100227.72;5065900;28;20068;-77
2022/04/01 02:07:48;;;;;;;5.47;2.77;;;;;;;12.47;59.07;100219.53;5065022;28;20079;-77
2022/04/01 02:10:16;;;;;;;9.60;3.23;;;;;;;12.61;58.87;100229.97;5070167;28;20048;-76
2022/04/01 02:12:44;;;;;;;6.70;2.80;;;;;;;12.53;58.57;100221.13;5082464;28;20099;-77
2022/04/01 02:15:11;;;;;;;9.10;3.30;;;;;;;12.53;58.48;100206.28;5063834;28;20055;-77
2022/04/01 02:17:40;;;;;;;12.33;3.53;;;;;;;12.65;58.21;100217.03;5067765;28;20048;-78
2022/04/01 02:20:11;;;;;;;7.17;3.13;;;;;;;12.74;58.13;100232.03;5071443;28;20052;-78
2022/04/01 02:22:38;;;;;;;6.83;3.40;;;;;;;12.27;58.43;100163.81;5083157;28;20076;-78
2022/04/01 02:25:07;;;;;;;6.27;2.90;;;;;;;12.67;58.58;100228.78;5081741;28;20109;-78
2022/04/01 02:27:35;;;;;;;9.57;2.87;;;;;;;12.38;58.63;100193.34;5075298;28;20470;-78
2022/04/01 02:30:10;;;;;;;6.00;3.30;;;;;;;12.39;58.43;100200.59;5070055;28;20084;-78
2022/04/01 02:32:41;;;;;;;5.97;3.33;;;;;;;12.54;57.99;100225.59;5065471;28;20094;-78
2022/04/01 02:35:09;;;;;;;9.47;3.87;;;;;;;12.49;57.96;100200.47;5073009;28;20385;-76
2022/04/01 02:37:39;;;;;;;7.33;2.90;;;;;;;12.49;58.14;100211.66;5071900;28;20083;-77
2022/04/01 02:40:07;;;;;;;4.43;2.77;;;;;;;12.63;57.97;100225.75;5059355;28;20045;-77
2022/04/01 02:42:34;;;;;;;7.00;3.00;;;;;;;12.37;58.21;100202.88;5068134;28;20140;-77
2022/04/01 02:45:02;;;;;;;6.83;2.70;;;;;;;12.49;58.28;100217.28;5090132;28;20083;-77
2022/04/01 02:47:29;;;;;;;9.00;3.33;;;;;;;12.47;58.34;100233.53;5070797;28;20156;-77
2022/04/01 02:49:56;;;;;;;7.53;3.27;;;;;;;12.18;58.03;100182.44;5063637;28;20080;-77
2022/04/01 02:52:23;;;;;;;7.10;3.30;;;;;;;12.31;58.00;100215.28;5070734;28;20087;-77
2022/04/01 02:54:52;;;;;;;8.70;2.97;;;;;;;12.27;58.34;100217.00;5064572;28;20075;-79
2022/04/01 02:57:20;;;;;;;4.83;2.63;;;;;;;12.25;58.36;100210.88;5065783;28;20106;-77
2022/04/01 02:59:48;;;;;;;5.10;2.83;;;;;;;12.13;58.05;100196.47;5068817;28;20079;-77
2022/04/01 03:02:15;;;;;;;7.73;2.77;;;;;;;12.14;58.23;100200.97;5072064;28;20972;-77
2022/04/01 03:04:42;;;;;;;6.37;2.60;;;;;;;12.28;58.20;100222.31;5068481;28;20113;-78
2022/04/01 03:07:09;;;;;;;5.63;2.73;;;;;;;12.41;57.76;100240.34;5067601;28;20484;-77
2022/04/01 03:09:36;;;;;;;5.60;2.70;;;;;;;12.23;57.72;100221.53;5063990;28;20439;-77
2022/04/01 03:12:07;;;;;;;8.37;3.20;;;;;;;12.10;57.97;100203.50;5073152;28;20139;-76
2022/04/01 03:14:34;;;;;;;6.27;3.23;;;;;;;12.25;57.88;100239.72;5064866;28;20420;-77
2022/04/01 03:17:01;;;;;;;8.83;3.10;;;;;;;12.05;57.94;100210.00;5070304;28;20048;-78
2022/04/01 03:19:28;;;;;;;6.17;2.77;;;;;;;12.02;57.99;100215.38;5074472;28;20497;-77
2022/04/01 03:21:55;;;;;;;7.03;3.13;;;;;;;12.24;57.91;100254.00;5062908;28;20060;-79
2022/04/01 03:24:22;;;;;;;6.47;2.97;;;;;;;12.05;58.32;100229.59;5066321;28;20207;-77
2022/04/01 03:26:49;;;;;;;7.80;3.27;;;;;;;11.99;57.93;100215.97;5067290;28;20068;-79
2022/04/01 03:29:16;;;;;;;6.47;3.13;;;;;;;12.19;57.88;100260.50;5070910;28;20140;-78
2022/04/01 03:31:45;;;;;;;8.33;3.10;;;;;;;11.96;57.89;100236.97;5068535;28;20131;-77
2022/04/01 03:34:12;;;;;;;7.07;3.10;;;;;;;11.86;57.81;100225.91;5082204;28;20049;-78
2022/04/01 03:36:39;;;;;;;5.40;2.83;;;;;;;11.89;57.74;100236.50;5067768;28;20049;-78
2022/04/01 03:39:06;;;;;;;4.63;3.07;;;;;;;12.00;57.98;100271.66;5062219;28;20190;-78
2022/04/01 03:41:33;;;;;;;6.63;2.97;;;;;;;11.87;57.92;100249.97;5062090;28;20215;-75
2022/04/01 03:44:01;;;;;;;6.83;3.30;;;;;;;11.78;57.49;100234.91;5071626;28;20495;-77
2022/04/01 03:46:54;;;;;;;8.83;3.03;;;;;;;11.79;57.53;100236.56;5066740;28;20075;-76
2022/04/01 03:49:23;;;;;;;5.90;3.67;;;;;;;12.00;57.46;100282.84;5079798;28;20135;-77
2022/04/01 03:51:51;;;;;;;9.23;5.60;;;;;;;12.06;57.65;100290.03;5066477;28;20488;-78
2022/04/01 03:54:18;;;;;;;6.20;5.30;;;;;;;12.05;57.73;100290.34;5071671;28;20072;-77
2022/04/01 03:56:56;;;;;;;6.97;4.80;;;;;;;11.87;57.37;100258.38;5068570;28;20471;-77
2022/04/01 03:59:26;;;;;;;6.53;4.80;;;;;;;12.02;57.46;100285.34;5070466;28;20079;-77
2022/04/01 04:01:53;;;;;;;14.18;5.30;;;;;;;11.84;57.53;100265.38;5067202;28;20127;-79
2022/04/01 04:04:21;;;;;;;8.37;5.07;;;;;;;11.91;57.62;100284.63;5066630;28;20056;-78
2022/04/01 04:06:47;;;;;;;5.23;4.63;;;;;;;11.54;57.76;100230.13;5070270;28;20090;-78
2022/04/01 04:09:18;;;;;;;5.83;4.00;;;;;;;11.65;57.52;100253.22;5066441;28;20044;-77
2022/04/01 04:11:45;;;;;;;5.33;4.10;;;;;;;11.67;57.28;100262.16;5071809;28;20072;-77
2022/04/01 04:14:12;;;;;;;4.47;3.70;;;;;;;11.53;56.86;100244.41;5070511;28;20053;-77
2022/04/01 04:16:47;;;;;;;3.97;3.67;;;;;;;11.33;57.05;100220.28;5068383;28;20068;-77
2022/04/01 04:19:13;;;;;;;6.87;4.13;;;;;;;11.81;56.85;100293.09;5071565;28;20584;-76
2022/04/01 04:21:50;;;;;;;4.30;3.90;;;;;;;11.58;56.63;100259.16;5069247;28;20056;-77
2022/04/01 04:24:24;;;;;;;4.70;4.30;;;;;;;11.70;56.62;100257.97;5068010;28;20127;-77
2022/04/01 04:26:53;;;;;;;4.40;4.00;;;;;;;11.53;56.39;100256.44;5067959;28;20072;-77
2022/04/01 04:29:21;;;;;;;4.80;3.78;;;;;;;11.46;56.49;100252.31;5068279;28;20085;-77
2022/04/01 04:31:57;;;;;;;6.10;4.57;;;;;;;11.65;56.40;100291.56;5058200;28;20512;-77
2022/04/01 04:34:30;;;;;;;4.17;3.60;;;;;;;11.51;56.12;100280.22;5064195;28;20169;-78
2022/04/01 04:36:57;;;;;;;6.77;3.77;;;;;;;11.58;56.24;100297.50;5061420;28;20437;-77
2022/04/01 04:39:34;;;;;;;5.23;3.80;;;;;;;11.66;55.97;100313.66;5072487;28;20055;-78
2022/04/01 04:42:05;;;;;;;4.70;3.67;;;;;;;11.46;55.69;100272.72;5056447;28;20080;-77
2022/04/01 04:44:31;;;;;;;4.27;3.80;;;;;;;11.66;55.74;100310.00;5068853;28;20083;-77
2022/04/01 04:47:00;;;;;;;4.20;3.23;;;;;;;11.59;55.75;100290.78;5064030;28;20127;-77
2022/04/01 04:49:28;;;;;;;5.13;3.30;;;;;;;11.56;55.75;100291.38;5067125;28;20052;-78
2022/04/01 04:51:56;;;;;;;4.57;3.23;;;;;;;11.49;55.66;100283.31;5084926;28;20131;-78
2022/04/01 04:54:25;;;;;;;3.80;3.17;;;;;;;11.59;55.82;100305.59;5071317;28;20151;-77
2022/04/01 04:56:56;;;;;;;4.20;3.70;;;;;;;11.62;55.67;100324.59;5068192;28;20850;-76
2022/04/01 04:59:23;;;;;;;5.93;3.40;;;;;;;11.49;55.59;100305.69;5086134;28;20126;-77
2022/04/01 05:02:05;;;;;;;3.70;3.30;;;;;;;11.36;55.40;100306.34;5063559;28;20079;-77
2022/04/01 05:04:56;;;;;;;3.47;3.17;;;;;;;11.55;55.37;100335.25;5053825;28;20471;-77
2022/04/01 05:07:46;;;;;;;6.37;3.10;;;;;;;11.47;55.40;100326.69;5064421;28;20044;-75
2022/04/01 05:10:18;;;;;;;4.63;3.30;;;;;;;11.33;55.63;100323.72;5064157;28;20088;-77
2022/04/01 05:12:49;;;;;;;8.27;3.40;;;;;;;11.35;55.17;100339.06;5064312;28;20081;-76
2022/04/01 05:15:22;;;;;;;3.40;3.10;;;;;;;11.25;55.27;100322.38;5069418;28;20143;-78
2022/04/01 05:18:07;;;;;;;3.83;3.53;;;;;;;11.32;55.12;100334.06;5070290;28;20121;-77
2022/04/01 05:20:38;;;;;;;3.83;3.43;;;;;;;11.12;54.70;100304.28;5061823;28;20045;-78
2022/04/01 05:23:15;;;;;;;3.37;3.07;;;;;;;11.27;54.80;100350.84;5066200;28;20131;-78
2022/04/01 05:25:45;;;;;;;3.60;3.30;;;;;;;11.13;54.77;100324.69;5069938;28;20531;-77
2022/04/01 05:28:23;;;;;;;;;;;;;;;11.09;55.34;100348.75;5068818;28;20477;-77
2022/04/01 05:31:02;;;;;;;6.13;4.27;;;;;;;10.85;55.28;100320.69;5057597;28;19979;-75
2022/04/01 05:33:40;;;;;;;3.20;2.90;;;;;;;10.73;55.35;100318.22;5058793;28;20057;-77
2022/04/01 05:36:09;;;;;;;4.93;3.90;;;;;;;10.80;55.38;100343.03;5070456;28;20076;-76
2022/04/01 05:38:37;;;;;;;4.30;3.10;;;;;;;10.72;55.18;100344.47;5064650;28;20116;-76
2022/04/01 05:41:06;;;;;;;7.87;3.20;;;;;;;10.58;55.27;100333.09;5065025;28;20053;-78
2022/04/01 05:43:34;;;;;;;4.60;4.13;;;;;;;10.77;54.99;100357.56;5061928;28;20118;-80
2022/04/01 05:46:03;;;;;;;3.10;2.80;;;;;;;10.63;54.74;100333.09;5063646;28;20079;-77
2022/04/01 05:48:32;;;;;;;4.00;3.00;;;;;;;10.84;54.55;100363.72;5069176;28;20060;-75
2022/04/01 05:51:04;;;;;;;3.37;3.07;;;;;;;10.37;54.73;100292.44;5067129;28;20076;-77
2022/04/01 05:53:34;;;;;;;4.37;3.10;;;;;;;10.88;54.39;100375.97;5067518;28;20049;-79
2022/04/01 05:56:02;;;;;;;6.78;3.55;;;;;;;10.80;54.19;100369.03;5065424;28;20470;-77
2022/04/01 05:58:31;;;;;;;5.07;3.27;;;;;;;10.83;54.13;100371.22;5068364;28;20131;-83
2022/04/01 06:01:12;;;;;;;6.03;3.05;;;;;;;10.93;54.17;100383.50;5075167;28;20045;-81
2022/04/01 06:03:43;;;;;;;6.13;4.00;;;;;;;10.23;53.69;100274.59;5083502;28;20127;-81
2022/04/01 06:06:27;;;;;;;3.93;3.07;;;;;;;10.52;54.02;100342.59;5088398;28;20076;-82
2022/04/01 06:08:54;;;;;;;3.70;3.40;;;;;;;10.81;53.92;100401.44;5077825;28;20056;-79
2022/04/01 06:11:44;;;;;;;4.57;3.00;;;;;;;10.54;53.89;100361.88;5067909;28;20076;-79
2022/04/01 06:14:22;;;;;;;;;;;;;;;10.59;54.52;100406.53;5070579;28;20522;-76
2022/04/01 06:17:04;;;;;;;4.10;3.70;;;;;;;10.37;54.32;100368.63;5082218;28;19952;-78
2022/04/01 06:19:40;;;;;;;6.73;3.70;;;;;;;10.62;53.98;100404.00;5067532;28;20083;-85
2022/04/01 06:22:14;;;;;;;5.17;4.13;;;;;;;10.54;53.52;100359.09;5071622;28;20045;-86
2022/04/01 06:25:13;;;;;;;9.17;8.37;;;;;;;10.86;53.79;100400.56;5092428;28;20079;-82
2022/04/01 06:27:46;;;;;;;10.55;8.88;;;;;;;10.94;53.61;100405.56;5093911;28;20037;-80
2022/04/01 06:30:15;;;;;;;8.57;7.73;;;;;;;10.53;53.31;100344.31;5093169;28;20052;-82
2022/04/01 06:32:48;;;;;;;9.53;8.83;;;;;;;10.99;53.01;100411.13;5080369;28;20151;-77
2022/04/01 06:35:29;;;;;;;9.53;8.60;;;;;;;11.04;53.03;100411.09;5069370;28;20049;-75
2022/04/01 06:38:05;;;;;;;9.40;8.80;;;;;;;11.06;52.78;100421.97;5068127;28;20053;-75
2022/04/01 06:40:52;;;;;;;8.40;7.90;;;;;;;10.91;52.66;100412.56;5062945;28;20044;-75
2022/04/01 06:43:19;;;;;;;10.40;9.40;;;;;;;10.97;52.54;100410.56;5070383;28;20136;-75
2022/04/01 06:45:45;;;;;;;11.43;10.10;;;;;;;10.88;52.23;100395.53;5068049;28;20041;-75
2022/04/01 06:48:12;;;;;;;9.53;8.83;;;;;;;10.93;52.25;100398.28;5062867;28;20584;-75
2022/04/01 06:50:42;;;;;;;10.57;9.77;;;;;;;11.14;52.22;100416.66;5067951;28;20409;-75
2022/04/01 06:53:09;;;;;;;9.97;9.30;;;;;;;11.25;52.12;100414.63;5072004;28;20076;-75
2022/04/01 06:55:43;;;;;;;9.90;9.33;;;;;;;11.39;51.83;100417.63;5070337;28;20114;-74
2022/04/01 06:58:11;;;;;;;11.23;10.40;;;;;;;11.58;51.42;100432.56;5069480;28;20132;-76
2022/04/01 07:00:42;;;;;;;13.00;9.37;;;;;;;11.89;51.00;100443.56;5059729;28;20044;-76
2022/04/01 07:03:10;;;;;;;11.73;10.90;;;;;;;12.00;50.77;100445.16;5065719;28;20140;-77
2022/04/01 07:05:40;;;;;;;10.63;9.90;;;;;;;11.91;50.40;100426.50;5066183;28;20145;-76
2022/04/01 07:08:07;;;;;;;10.67;9.97;;;;;;;12.14;50.09;100450.94;5058366;28;20084;-77
2022/04/01 07:10:35;;;;;;;11.10;10.30;;;;;;;12.29;49.75;100464.78;5063825;28;20084;-79
2022/04/01 07:13:02;;;;;;;9.90;9.10;;;;;;;12.44;49.60;100465.75;5068460;28;20508;-81
2022/04/01 07:15:29;;;;;;;9.87;8.90;;;;;;;12.54;49.22;100455.28;5064815;28;20098;-83
2022/04/01 07:17:56;;;;;;;9.90;8.97;;;;;;;12.65;48.87;100421.53;5067095;28;20045;-81
2022/04/01 07:20:24;;;;;;;11.00;9.97;;;;;;;13.16;48.57;100491.00;5067676;28;20079;-79
2022/04/01 07:22:54;;;;;;;10.47;9.67;;;;;;;13.45;48.15;100479.72;5065344;28;20516;-80
2022/04/01 07:25:23;;;;;;;11.18;10.43;;;;;;;13.58;47.78;100452.91;5067536;28;20461;-81
2022/04/01 07:27:51;;;;;;;9.32;8.68;;;;;;;13.96;47.26;100484.59;5064889;28;20056;-83
2022/04/01 07:30:18;;;;;;;10.20;8.93;;;;;;;14.04;46.84;100469.03;5084342;28;20052;-80
2022/04/01 07:32:47;;;;;;;11.20;10.10;;;;;;;14.45;46.45;100498.06;5059412;28;20040;-82
2022/04/01 07:35:14;;;;;;;9.80;9.10;;;;;;;14.60;46.26;100484.94;5064644;28;20094;-82
2022/04/01 07:37:42;;;;;;;10.30;9.43;;;;;;;14.91;45.67;100500.09;5061954;28;20102;-81
2022/04/01 07:40:21;;;;;;;10.17;9.20;;;;;;;15.04;45.25;100506.88;5063689;28;20051;-81
2022/04/01 07:42:48;;;;;;;9.77;8.90;;;;;;;14.82;45.04;100456.13;5063645;28;20047;-81
2022/04/01 07:45:17;;;;;;;9.80;8.90;;;;;;;15.38;44.41;100520.50;5073967;28;20131;-82
2022/04/01 07:47:46;;;;;;;10.20;9.30;;;;;;;15.52;44.12;100502.75;5072388;28;20143;-80
2022/04/01 07:50:14;;;;;;;9.70;8.80;;;;;;;15.78;43.19;100511.50;5084296;28;20091;-80
2022/04/01 07:52:43;;;;;;;9.63;8.90;;;;;;;15.75;43.08;100469.91;5116521;28;20075;-80
2022/04/01 07:55:13;;;;;;;12.05;10.85;;;;;;;15.94;42.47;100487.47;5073835;28;20044;-82
2022/04/01 07:57:45;;;;;;;10.02;9.10;;;;;;;16.19;42.18;100488.81;5082663;28;20530;-86
2022/04/01 08:00:15;;;;;;;7.22;2.08;;;;;;;16.55;41.39;100533.03;5077327;28;20054;-82
2022/04/01 08:02:44;;;;;;;5.68;1.98;;;;;;;16.35;40.96;100480.81;5071970;28;20082;-81
2022/04/01 08:05:12;;;;;;;5.78;1.90;;;;;;;16.89;40.57;100517.47;5068407;28;20057;-83
2022/04/01 08:07:40;;;;;;;9.32;2.20;;;;;;;17.18;40.00;100526.25;5067951;28;20504;-83
2022/04/01 08:10:08;;;;;;;3.75;1.50;;;;;;;17.25;39.42;100489.94;5074528;28;20101;-83
2022/04/01 08:12:40;;;;;;;3.78;2.03;;;;;;;17.50;38.80;100507.25;5081733;28;20067;-81
2022/04/01 08:15:08;;;;;;;3.40;1.80;;;;;;;17.87;38.49;100531.28;5081244;28;20052;-81
2022/04/01 08:17:36;;;;;;;6.00;3.05;;;;;;;17.94;38.05;100519.50;5075484;28;20044;-82
2022/04/01 08:20:03;;;;;;;7.05;2.72;;;;;;;17.94;37.52;100513.84;5073239;28;20087;-81
2022/04/01 08:22:30;;;;;;;7.40;2.53;;;;;;;18.34;37.58;100551.28;5075530;28;20136;-80
2022/04/01 08:24:57;;;;;;;7.97;2.60;;;;;;;18.44;36.96;100522.66;5072302;28;20083;-88
2022/04/01 08:27:24;;;;;;;4.05;1.65;;;;;;;18.54;36.35;100527.13;5096500;28;20109;-80
2022/04/01 08:29:57;;;;;;;4.55;1.98;;;;;;;18.87;35.90;100552.06;5084700;28;20531;-82
2022/04/01 08:32:24;;;;;;;5.90;1.92;;;;;;;19.09;35.60;100540.50;5087956;28;20048;-88
2022/04/01 08:34:50;;;;;;;11.50;4.47;;;;;;;18.93;35.41;100468.66;5084953;28;20044;-83
2022/04/01 08:37:18;;;;;;;18.48;7.93;;;;;;;19.73;34.90;100556.56;5081879;28;20083;-83
2022/04/01 08:39:50;;;;;;;14.63;6.60;;;;;;;19.68;34.33;100500.09;5076001;28;20472;-82
2022/04/01 08:42:17;;;;;;;20.40;7.13;;;;;;;19.86;33.87;100507.31;5085378;28;20102;-80
2022/04/01 08:44:49;;;;;;;10.98;4.40;;;;;;;19.91;33.34;100488.44;5072449;28;20127;-82
2022/04/01 08:47:16;;;;;;;8.23;3.20;;;;;;;20.29;32.88;100545.00;5083183;28;20072;-80
2022/04/01 08:49:43;;;;;;;7.32;3.10;;;;;;;20.29;32.53;100533.66;5083051;28;20441;-80
2022/04/01 08:52:13;;;;;;;;;;;;;;;20.32;34.46;100567.00;5073289;28;20135;-82
2022/04/01 08:54:41;;;;;;;3.85;1.50;;;;;;;20.40;32.64;100536.88;5086391;28;19920;-80
2022/04/01 08:57:08;;;;;;;5.15;2.20;;;;;;;20.68;32.07;100540.00;5083126;28;20040;-81
2022/04/01 08:59:37;;;;;;;3.58;2.17;;;;;;;21.11;31.78;100542.38;5074523;28;20512;-82
2022/04/01 09:02:09;;;;;;;4.00;2.13;;;;;;;21.59;30.95;100562.69;5077751;28;20150;-81
2022/04/01 09:04:38;;;;;;;4.00;1.80;;;;;;;21.63;30.36;100572.16;5072863;28;20063;-81
2022/04/01 09:07:15;;;;;;;4.78;2.88;;;;;;;21.76;30.46;100566.09;5087863;28;20127;-82
2022/04/01 09:09:43;;;;;;;5.15;2.03;;;;;;;22.21;29.65;100587.06;5073164;28;20120;-80
2022/04/01 09:12:17;;;;;;;3.97;1.45;;;;;;;22.32;29.41;100573.97;5079943;28;20048;-82
2022/04/01 09:14:53;;;;;;;3.67;2.13;;;;;;;22.30;29.24;100553.63;5072495;28;20048;-80
2022/04/01 09:17:20;;;;;;;4.00;1.70;;;;;;;22.50;29.02;100574.53;5073794;28;20055;-82
2022/04/01 09:20:02;;;;;;;5.57;1.65;;;;;;;22.53;28.57;100545.38;5077530;28;20049;-81
2022/04/01 09:22:29;;;;;;;3.78;1.75;;;;;;;22.67;28.40;100568.53;5071534;28;20057;-82
2022/04/01 09:25:02;;;;;;;3.03;1.70;;;;;;;22.57;27.65;100554.00;5069930;28;20465;-78
2022/04/01 09:27:46;;;;;;;2.22;1.33;;;;;;;22.89;27.81;100604.13;5068608;28;20051;-86
2022/04/01 09:30:18;;;;;;;4.30;1.65;;;;;;;23.04;27.51;100605.44;5072415;28;20071;-85
2022/04/01 09:32:51;;;;;;;2.88;1.60;;;;;;;23.20;27.22;100584.66;5101493;28;20051;-90
2022/04/01 09:35:22;;;;;;;2.92;1.60;;;;;;;22.91;27.03;100533.44;5100681;28;20423;-84
2022/04/01 09:37:54;;;;;;;3.10;1.65;;;;;;;23.08;27.30;100534.31;5074632;28;20041;-85
2022/04/01 09:40:22;;;;;;;3.53;1.80;;;;;;;23.41;26.50;100580.34;5090055;28;20060;-81
2022/04/01 09:42:59;;;;;;;4.00;1.73;;;;;;;23.50;26.88;100583.03;5077167;28;20087;-81
2022/04/01 09:45:28;;;;;;;6.72;2.80;;;;;;;23.78;26.08;100605.78;5079735;28;20103;-82
2022/04/01 09:48:02;;;;;;;6.30;1.88;;;;;;;23.84;25.82;100587.19;5082295;28;20075;-81
2022/04/01 09:50:37;;;;;;;5.55;1.55;;;;;;;23.08;26.10;100438.28;5101275;28;20045;-82
2022/04/01 09:53:10;;;;;;;3.20;1.70;;;;;;;24.49;25.46;100603.00;5097084;28;20048;-85
2022/04/01 09:55:39;;;;;;;6.70;1.80;;;;;;;24.60;25.31;100584.06;5091280;28;20056;-85
2022/04/01 09:58:07;;;;;;;4.55;2.80;;;;;;;24.56;25.01;100554.59;5076234;28;20068;-82
2022/04/01 10:00:36;;;;;;;3.67;2.33;;;;;;;24.80;25.09;100594.28;5096311;28;20400;-84
2022/04/01 10:03:04;;;;;;;;;;;;;;;24.74;26.66;100612.91;5083437;28;20559;-79
2022/04/01 10:05:33;;;;;;;3.42;1.63;;;;;;;24.96;25.17;100585.63;5090983;28;19924;-81
2022/04/01 10:08:02;;;;;;;4.57;1.88;;;;;;;24.84;24.85;100537.22;5076373;28;20048;-82
2022/04/01 10:10:30;;;;;;;3.78;2.50;;;;;;;25.28;24.43;100586.25;5075681;28;20056;-83
2022/04/01 10:13:01;;;;;;;5.63;2.17;;;;;;;25.52;24.09;100604.25;5074331;28;20105;-83
2022/04/01 10:15:30;;;;;;;4.35;2.22;;;;;;;25.37;24.26;100545.16;5075867;28;20060;-84
2022/04/01 10:17:58;;;;;;;4.28;2.17;;;;;;;25.40;24.03;100541.53;5077002;28;20052;-81
2022/04/01 10:20:34;;;;;;;4.68;2.05;;;;;;;25.38;23.78;100546.81;5082014;28;20514;-81
2022/04/01 10:23:04;;;;;;;8.20;2.00;;;;;;;26.18;23.19;100622.13;5079215;28;20074;-84
2022/04/01 10:26:04;;;;;;;5.32;1.58;;;;;;;26.07;23.49;100581.91;5080252;28;20934;-86
2022/04/01 10:28:31;;;;;;;3.15;1.70;;;;;;;26.13;22.99;100573.81;5087865;28;20040;-83
2022/04/01 10:31:01;;;;;;;4.55;2.15;;;;;;;26.61;22.71;100617.88;5070163;28;20100;-83
2022/04/01 10:33:33;;;;;;;5.75;2.00;;;;;;;26.49;22.62;100603.78;5070544;28;20060;-84
2022/04/01 10:36:22;;;;;;;2.95;1.85;;;;;;;26.63;22.69;100624.06;5068322;28;20048;-86
2022/04/01 10:39:05;;;;;;;5.72;2.10;;;;;;;26.84;22.61;100623.50;5066237;28;20128;-82
2022/04/01 10:41:33;;;;;;;4.45;2.35;;;;;;;26.98;22.15;100634.34;5070072;28;20082;-83
2022/04/01 10:44:03;;;;;;;5.05;2.33;;;;;;;26.60;22.25;100556.09;5072100;28;20052;-83
2022/04/01 10:46:30;;;;;;;8.98;2.78;;;;;;;27.35;21.99;100633.53;5074793;28;20094;-83
2022/04/01 10:52:24;;;;;;;2.95;2.20;;;;;;;27.44;22.59;100619.72;5069697;28;20117;-85
2022/04/01 10:55:03;;;;;;;3.13;1.95;;;;;;;27.60;21.94;100631.75;5056869;28;20079;-82
2022/04/01 10:57:45;;;;;;;7.28;2.58;;;;;;;27.29;21.96;100612.19;5072929;28;20136;-84
2022/04/01 11:00:17;;;;;;;3.80;2.30;;;;;;;27.58;21.38;100622.72;5077644;28;20079;-84
2022/04/01 11:02:46;;;;;;;5.13;3.08;;;;;;;27.67;21.25;100621.56;5072837;28;20078;-82
2022/04/01 11:05:29;;;;;;;4.82;2.17;;;;;;;27.95;21.07;100630.44;5073878;28;20056;-83
2022/04/01 11:08:19;;;;;;;4.55;1.98;;;;;;;28.25;20.85;100626.59;5072423;28;20128;-82
2022/04/01 11:11:09;;;;;;;5.68;2.20;;;;;;;28.32;20.85;100630.31;5067931;28;20094;-83
2022/04/01 11:13:37;;;;;;;;;;;;;;;28.05;22.48;100629.72;5068548;28;20102;-85
2022/04/01 11:16:20;;;;;;;4.45;2.15;;;;;;;28.40;21.31;100630.41;5070727;28;19927;-84
2022/04/01 11:19:15;;;;;;;2.72;2.20;;;;;;;28.53;21.36;100631.72;5068527;28;20045;-82
2022/04/01 11:21:45;;;;;;;5.75;1.75;;;;;;;28.68;20.47;100601.81;5072398;28;20080;-83
2022/04/01 11:24:22;;;;;;;2.72;1.80;;;;;;;29.00;20.07;100624.16;5067302;28;20121;-82
2022/04/01 11:26:50;;;;;;;4.35;2.40;;;;;;;28.94;19.93;100620.81;5089461;28;20533;-84
2022/04/01 11:29:23;;;;;;;5.03;3.08;;;;;;;29.06;19.62;100616.81;5069084;28;20068;-83
2022/04/01 11:32:02;;;;;;;3.40;2.00;;;;;;;29.00;19.64;100630.75;5068607;28;20040;-84
2022/04/01 11:34:29;;;;;;;5.15;1.83;;;;;;;28.33;19.52;100568.78;5063882;28;20080;-81
2022/04/01 11:37:01;;;;;;;3.15;2.03;;;;;;;28.90;19.38;100614.25;5070374;28;20136;-83
2022/04/01 11:39:28;;;;;;;3.03;1.88;;;;;;;28.78;19.33;100577.22;5088955;28;20066;-84
2022/04/01 11:41:55;;;;;;;5.00;2.35;;;;;;;29.31;18.98;100622.63;5072814;28;20044;-83
2022/04/01 11:44:23;;;;;;;3.72;1.98;;;;;;;29.45;18.56;100611.13;5070526;28;20114;-83
2022/04/01 11:46:55;;;;;;;6.85;2.88;;;;;;;29.37;18.39;100591.38;5069524;28;20109;-82
2022/04/01 11:49:26;;;;;;;3.88;2.35;;;;;;;29.59;18.56;100586.50;5071389;28;20435;-83
2022/04/01 11:51:57;;;;;;;8.30;2.97;;;;;;;29.86;18.49;100613.66;5086264;28;20076;-82